| time (UTC) | temp C | wind direction | speed KPH | gust KPH | rain 1hr cm | rain 24hr cm | rain mn cm | humidity % | barometer mb |
| 20260510132624 | 16 | 248 | 6.4 | 8.0 | 0.00 | 0.00 | 0.00 | 78 | 1017.6 |
| 20260510132121 | 16 | 328 | 12.9 | 14.5 | 0.00 | 0.00 | 0.00 | 79 | 1017.7 |
| 20260510131619 | 16 | 285 | 11.3 | 14.5 | 0.00 | 0.00 | 0.00 | 81 | 1017.6 |
| 20260510131116 | 16 | 329 | 8.0 | 9.7 | 0.00 | 0.00 | 0.00 | 82 | 1017.8 |
| 20260510130612 | 16 | 7 | 8.0 | 11.3 | 0.00 | 0.00 | 0.00 | 84 | 1017.7 |
| 20260510130110 | 16 | 286 | 9.7 | 11.3 | 0.00 | 0.00 | 0.00 | 84 | 1017.6 |
| 20260510125606 | 16 | 323 | 11.3 | 16.1 | 0.00 | 0.00 | 0.00 | 85 | 1017.7 |
| 20260510125102 | 15 | 237 | 4.8 | 4.8 | 0.00 | 0.00 | 0.00 | 86 | 1017.6 |
| 20260510124559 | 15 | 276 | 11.3 | 14.5 | 0.00 | 0.00 | 0.00 | 86 | 1017.7 |
| 20260510124056 | 15 | 18 | 4.8 | 4.8 | 0.00 | 0.00 | 0.00 | 87 | 1017.8 |
| 20260510123551 | 15 | 273 | 3.2 | 3.2 | 0.00 | 0.00 | 0.00 | 87 | 1017.7 |
| 20260510123047 | 14 | 221 | 1.6 | 3.2 | 0.00 | 0.00 | 0.00 | 88 | 1017.6 |
| 20260510122543 | 13 | 214 | 0.0 | 1.6 | 0.00 | 0.00 | 0.00 | 88 | 1017.4 |
| 20260510122040 | 13 | 192 | 1.6 | 1.6 | 0.00 | 0.00 | 0.00 | 89 | 1017.3 |
| 20260510121537 | 13 | 221 | 0.0 | 0.0 | 0.00 | 0.00 | 0.00 | 90 | 1017.3 |
| 20260510121034 | 13 | 224 | 0.0 | 0.0 | 0.00 | 0.00 | 0.00 | 91 | 1016.9 |
| 20260510120531 | 13 | 219 | 0.0 | 0.0 | 0.00 | 0.00 | 0.00 | 91 | 1016.9 |
| 20260510120027 | 13 | 206 | 0.0 | 0.0 | 0.00 | 0.00 | 0.00 | 91 | 1017.0 |
| 20260510115524 | 12 | 206 | 0.0 | 0.0 | 0.00 | 0.00 | 0.00 | 91 | 1016.6 |
| 20260510115021 | 12 | 206 | 0.0 | 0.0 | 0.00 | 0.00 | 0.00 | 91 | 1016.7 |
| 20260510114517 | 12 | 206 | 0.0 | 0.0 | 0.00 | 0.00 | 0.00 | 91 | 1016.9 |
| 20260510114013 | 12 | 205 | 0.0 | 1.6 | 0.00 | 0.00 | 0.00 | 91 | 1016.7 |
| 20260510113508 | 12 | 210 | 0.0 | 0.0 | 0.00 | 0.00 | 0.00 | 92 | 1016.7 |
| 20260510113006 | 12 | 211 | 0.0 | 0.0 | 0.00 | 0.00 | 0.00 | 92 | 1016.7 |
| 20260510112502 | 12 | 206 | 1.6 | 1.6 | 0.00 | 0.00 | 0.00 | 91 | 1016.7 |
| 20260510111958 | 12 | 198 | 0.0 | 0.0 | 0.00 | 0.00 | 0.00 | 92 | 1016.4 |
| 20260510111454 | 12 | 212 | 0.0 | 0.0 | 0.00 | 0.00 | 0.00 | 91 | 1016.3 |
| 20260510110951 | 12 | 219 | 0.0 | 0.0 | 0.00 | 0.00 | 0.00 | 91 | 1016.1 |
| 20260510110447 | 12 | 225 | 0.0 | 0.0 | 0.00 | 0.00 | 0.00 | 90 | 1016.4 |
| 20260510105938 | 12 | 212 | 0.0 | 0.0 | 0.00 | 0.00 | 0.00 | 90 | 1016.0 |
| 20260510105433 | 12 | 215 | 0.0 | 0.0 | 0.00 | 0.00 | 0.00 | 90 | 1016.0 |
| 20260510104929 | 12 | 215 | 0.0 | 0.0 | 0.00 | 0.00 | 0.00 | 90 | 1015.9 |
| 20260510104425 | 12 | 215 | 0.0 | 0.0 | 0.00 | 0.00 | 0.00 | 89 | 1015.8 |
| 20260510103922 | 12 | 215 | 0.0 | 0.0 | 0.00 | 0.00 | 0.00 | 89 | 1015.8 |
| 20260510103420 | 12 | 215 | 0.0 | 0.0 | 0.00 | 0.00 | 0.00 | 89 | 1015.7 |
| 20260510102919 | 12 | 226 | 0.0 | 0.0 | 0.00 | 0.00 | 0.00 | 89 | 1015.6 |
| 20260510102416 | 12 | 226 | 0.0 | 1.6 | 0.00 | 0.00 | 0.00 | 89 | 1015.8 |
| 20260510101914 | 13 | 226 | 0.0 | 0.0 | 0.00 | 0.00 | 0.00 | 89 | 1015.6 |
| 20260510101412 | 12 | 250 | 1.6 | 1.6 | 0.00 | 0.00 | 0.00 | 88 | 1015.5 |
| 20260510100909 | 12 | 217 | 0.0 | 1.6 | 0.00 | 0.00 | 0.00 | 88 | 1015.4 |
| 20260510100406 | 12 | 216 | 0.0 | 0.0 | 0.00 | 0.00 | 0.00 | 88 | 1015.4 |
| 20260510095902 | 12 | 207 | 1.6 | 1.6 | 0.00 | 0.00 | 0.00 | 87 | 1015.3 |
| 20260510095357 | 12 | 215 | 1.6 | 1.6 | 0.00 | 0.00 | 0.00 | 88 | 1015.4 |
| 20260510094856 | 12 | 205 | 1.6 | 1.6 | 0.00 | 0.00 | 0.00 | 89 | 1015.4 |
| 20260510094352 | 12 | 220 | 1.6 | 1.6 | 0.00 | 0.00 | 0.00 | 89 | 1015.4 |
| 20260510093848 | 12 | 161 | 1.6 | 3.2 | 0.00 | 0.00 | 0.00 | 89 | 1015.3 |
| 20260510093344 | 12 | 244 | 1.6 | 1.6 | 0.00 | 0.00 | 0.00 | 89 | 1015.1 |
| 20260510092840 | 12 | 226 | 0.0 | 0.0 | 0.00 | 0.00 | 0.00 | 89 | 1015.0 |
| 20260510092337 | 12 | 222 | 1.6 | 1.6 | 0.00 | 0.00 | 0.00 | 89 | 1014.9 |
| 20260510091832 | 12 | 207 | 0.0 | 0.0 | 0.00 | 0.00 | 0.00 | 89 | 1014.8 |
| 20260510091330 | 12 | 223 | 0.0 | 0.0 | 0.00 | 0.00 | 0.00 | 89 | 1014.6 |
| 20260510090826 | 12 | 223 | 0.0 | 1.6 | 0.00 | 0.00 | 0.00 | 89 | 1014.6 |
| 20260510090323 | 12 | 223 | 0.0 | 0.0 | 0.00 | 0.00 | 0.00 | 89 | 1014.6 |
| 20260510085818 | 12 | 223 | 0.0 | 1.6 | 0.00 | 0.00 | 0.00 | 89 | 1014.7 |
| 20260510085313 | 12 | 220 | 1.6 | 1.6 | 0.00 | 0.00 | 0.00 | 88 | 1014.6 |
| 20260510084809 | 12 | 212 | 0.0 | 1.6 | 0.00 | 0.00 | 0.00 | 88 | 1014.4 |
| 20260510084306 | 12 | 193 | 4.8 | 4.8 | 0.00 | 0.00 | 0.00 | 87 | 1014.6 |
| 20260510083803 | 12 | 214 | 1.6 | 1.6 | 0.00 | 0.00 | 0.00 | 88 | 1014.9 |
| 20260510083300 | 12 | 206 | 1.6 | 1.6 | 0.00 | 0.00 | 0.00 | 87 | 1014.7 |
| 20260510082755 | 12 | 185 | 1.6 | 1.6 | 0.00 | 0.00 | 0.00 | 87 | 1015.0 |
| 20260510082252 | 12 | 206 | 1.6 | 1.6 | 0.00 | 0.00 | 0.00 | 87 | 1014.9 |
| 20260510081750 | 12 | 215 | 1.6 | 1.6 | 0.00 | 0.00 | 0.00 | 87 | 1014.8 |
| 20260510081247 | 12 | 209 | 1.6 | 1.6 | 0.00 | 0.00 | 0.00 | 87 | 1014.9 |
| 20260510080743 | 12 | 202 | 0.0 | 0.0 | 0.00 | 0.00 | 0.00 | 86 | 1014.9 |
| 20260510080238 | 12 | 213 | 0.0 | 0.0 | 0.00 | 0.00 | 0.00 | 86 | 1014.9 |
| 20260510075736 | 12 | 212 | 1.6 | 1.6 | 0.00 | 0.00 | 0.00 | 85 | 1014.6 |
| 20260510075233 | 12 | 203 | 3.2 | 3.2 | 0.00 | 0.00 | 0.00 | 84 | 1014.9 |
| 20260510074730 | 12 | 208 | 0.0 | 1.6 | 0.00 | 0.00 | 0.00 | 84 | 1014.7 |
| 20260510074226 | 12 | 223 | 1.6 | 1.6 | 0.00 | 0.00 | 0.00 | 86 | 1014.3 |
| 20260510073722 | 12 | 200 | 3.2 | 3.2 | 0.00 | 0.00 | 0.00 | 85 | 1014.7 |
| 20260510073218 | 12 | 218 | 0.0 | 0.0 | 0.00 | 0.00 | 0.00 | 84 | 1014.7 |
| 20260510072714 | 12 | 220 | 0.0 | 0.0 | 0.00 | 0.00 | 0.00 | 85 | 1014.4 |
| 20260510072211 | 13 | 178 | 4.8 | 4.8 | 0.00 | 0.00 | 0.00 | 83 | 1014.6 |
| 20260510071708 | 13 | 195 | 1.6 | 3.2 | 0.00 | 0.00 | 0.00 | 83 | 1014.8 |
| 20260510071205 | 13 | 223 | 0.0 | 0.0 | 0.00 | 0.00 | 0.00 | 82 | 1014.6 |
| 20260510070702 | 13 | 221 | 1.6 | 1.6 | 0.00 | 0.00 | 0.00 | 82 | 1014.4 |
| 20260510070159 | 13 | 196 | 1.6 | 3.2 | 0.00 | 0.00 | 0.00 | 82 | 1014.8 |
| 20260510065655 | 13 | 204 | 1.6 | 1.6 | 0.00 | 0.00 | 0.00 | 83 | 1015.0 |
| 20260510065151 | 13 | 195 | 1.6 | 1.6 | 0.00 | 0.00 | 0.00 | 84 | 1014.8 |
| 20260510064648 | 13 | 225 | 0.0 | 1.6 | 0.00 | 0.00 | 0.00 | 84 | 1014.8 |
| 20260510064144 | 13 | 230 | 1.6 | 1.6 | 0.00 | 0.00 | 0.00 | 85 | 1014.6 |
| 20260510063642 | 13 | 247 | 3.2 | 3.2 | 0.00 | 0.00 | 0.00 | 84 | 1014.4 |
| 20260510063138 | 14 | 223 | 1.6 | 1.6 | 0.00 | 0.00 | 0.00 | 80 | 1014.3 |
| 20260510062634 | 15 | 204 | 0.0 | 1.6 | 0.00 | 0.00 | 0.00 | 76 | 1014.3 |
| 20260510062131 | 15 | 206 | 3.2 | 3.2 | 0.00 | 0.00 | 0.00 | 76 | 1014.4 |
| 20260510061626 | 15 | 185 | 4.8 | 4.8 | 0.00 | 0.00 | 0.00 | 77 | 1014.1 |
| 20260510061124 | 14 | 199 | 3.2 | 3.2 | 0.00 | 0.00 | 0.00 | 79 | 1014.4 |
| 20260510060620 | 13 | 192 | 3.2 | 3.2 | 0.00 | 0.00 | 0.00 | 80 | 1014.3 |
| 20260510060116 | 13 | 199 | 3.2 | 3.2 | 0.00 | 0.00 | 0.00 | 81 | 1014.4 |
| 20260510055612 | 13 | 194 | 3.2 | 3.2 | 0.00 | 0.00 | 0.00 | 81 | 1014.3 |
| 20260510055110 | 13 | 199 | 1.6 | 1.6 | 0.00 | 0.00 | 0.00 | 82 | 1014.1 |
| 20260510054606 | 14 | 195 | 1.6 | 1.6 | 0.00 | 0.00 | 0.00 | 81 | 1014.0 |
| 20260510054101 | 13 | 208 | 1.6 | 1.6 | 0.00 | 0.00 | 0.00 | 82 | 1014.1 |
| 20260510053601 | 13 | 205 | 1.6 | 3.2 | 0.00 | 0.00 | 0.00 | 84 | 1014.1 |
| 20260510053058 | 13 | 204 | 3.2 | 3.2 | 0.00 | 0.00 | 0.00 | 84 | 1014.2 |
| 20260510052554 | 13 | 209 | 0.0 | 1.6 | 0.00 | 0.00 | 0.00 | 85 | 1014.0 |
| 20260510052050 | 13 | 201 | 1.6 | 3.2 | 0.00 | 0.00 | 0.00 | 84 | 1013.9 |
| 20260510051546 | 12 | 206 | 3.2 | 3.2 | 0.00 | 0.00 | 0.00 | 85 | 1014.2 |
| 20260510051043 | 12 | 216 | 1.6 | 1.6 | 0.00 | 0.00 | 0.00 | 86 | 1014.0 |
| 20260510050540 | 12 | 220 | 1.6 | 1.6 | 0.00 | 0.00 | 0.00 | 86 | 1014.3 |
| 20260510050037 | 12 | 212 | 1.6 | 1.6 | 0.00 | 0.00 | 0.00 | 87 | 1014.3 |
| 20260510045534 | 13 | 189 | 4.8 | 4.8 | 0.00 | 0.03 | 0.03 | 86 | 1014.3 |
| 20260510045030 | 12 | 212 | 1.6 | 1.6 | 0.00 | 0.03 | 0.03 | 87 | 1014.0 |
| 20260510044527 | 12 | 222 | 1.6 | 1.6 | 0.00 | 0.03 | 0.03 | 88 | 1013.8 |
| 20260510044025 | 12 | 224 | 1.6 | 1.6 | 0.00 | 0.03 | 0.03 | 87 | 1013.9 |
| 20260510043520 | 12 | 208 | 1.6 | 1.6 | 0.00 | 0.03 | 0.03 | 87 | 1013.9 |
| 20260510043015 | 13 | 232 | 1.6 | 3.2 | 0.00 | 0.03 | 0.03 | 86 | 1013.5 |
| 20260510042510 | 13 | 204 | 0.0 | 0.0 | 0.00 | 0.03 | 0.03 | 86 | 1013.6 |
| 20260510042005 | 13 | 204 | 0.0 | 0.0 | 0.00 | 0.03 | 0.03 | 86 | 1013.7 |
| 20260510041502 | 13 | 204 | 0.0 | 0.0 | 0.00 | 0.03 | 0.03 | 87 | 1013.7 |
| 20260510041000 | 13 | 204 | 0.0 | 0.0 | 0.00 | 0.03 | 0.03 | 87 | 1013.5 |
| 20260510040455 | 13 | 200 | 1.6 | 3.2 | 0.00 | 0.03 | 0.03 | 86 | 1013.6 |
| 20260510035946 | 13 | 191 | 3.2 | 3.2 | 0.00 | 0.03 | 0.03 | 86 | 1013.8 |
| 20260510035442 | 13 | 192 | 3.2 | 3.2 | 0.00 | 0.03 | 0.03 | 85 | 1013.8 |
| 20260510034937 | 13 | 208 | 0.0 | 1.6 | 0.00 | 0.03 | 0.03 | 86 | 1013.6 |
| 20260510034436 | 13 | 208 | 0.0 | 1.6 | 0.00 | 0.03 | 0.03 | 86 | 1013.6 |
| 20260510033932 | 14 | 208 | 1.6 | 1.6 | 0.00 | 0.03 | 0.03 | 85 | 1013.5 |
| 20260510033428 | 13 | 207 | 0.0 | 1.6 | 0.00 | 0.03 | 0.03 | 83 | 1013.5 |
| 20260510032925 | 14 | 206 | 0.0 | 0.0 | 0.00 | 0.03 | 0.03 | 83 | 1013.5 |
| 20260510032422 | 14 | 196 | 1.6 | 1.6 | 0.00 | 0.03 | 0.03 | 83 | 1013.4 |
| 20260510031917 | 14 | 194 | 3.2 | 3.2 | 0.00 | 0.03 | 0.03 | 83 | 1013.3 |
| 20260510031412 | 14 | 205 | 1.6 | 1.6 | 0.00 | 0.03 | 0.03 | 83 | 1013.3 |
| 20260510030907 | 14 | 207 | 0.0 | 0.0 | 0.00 | 0.03 | 0.03 | 83 | 1013.3 |
| 20260510030404 | 15 | 199 | 1.6 | 1.6 | 0.00 | 0.03 | 0.03 | 82 | 1013.6 |
| 20260510025901 | 15 | 198 | 3.2 | 3.2 | 0.00 | 0.03 | 0.03 | 81 | 1013.2 |
| 20260510025359 | 15 | 210 | 1.6 | 1.6 | 0.00 | 0.03 | 0.03 | 81 | 1013.3 |
| 20260510024856 | 15 | 202 | 1.6 | 1.6 | 0.00 | 0.03 | 0.03 | 81 | 1013.1 |
| 20260510024352 | 15 | 204 | 1.6 | 1.6 | 0.00 | 0.03 | 0.03 | 80 | 1013.2 |
| 20260510023848 | 15 | 204 | 0.0 | 1.6 | 0.00 | 0.03 | 0.03 | 79 | 1013.1 |
| 20260510023345 | 15 | 204 | 0.0 | 1.6 | 0.00 | 0.03 | 0.03 | 80 | 1012.7 |
| 20260510022843 | 15 | 204 | 1.6 | 1.6 | 0.00 | 0.03 | 0.03 | 80 | 1012.8 |
| 20260510022341 | 16 | 208 | 0.0 | 0.0 | 0.00 | 0.03 | 0.03 | 81 | 1012.4 |
| 20260510021840 | 16 | 207 | 0.0 | 0.0 | 0.00 | 0.03 | 0.03 | 79 | 1012.2 |
| 20260510021339 | 16 | 205 | 1.6 | 1.6 | 0.00 | 0.03 | 0.03 | 77 | 1012.3 |
| 20260510020835 | 16 | 203 | 1.6 | 1.6 | 0.00 | 0.03 | 0.03 | 76 | 1012.4 |
| 20260510020335 | 17 | 217 | 0.0 | 0.0 | 0.00 | 0.03 | 0.03 | 75 | 1012.1 |
| 20260510015831 | 17 | 219 | 0.0 | 0.0 | 0.00 | 0.03 | 0.03 | 73 | 1012.1 |
| 20260510015327 | 17 | 219 | 0.0 | 0.0 | 0.00 | 0.03 | 0.03 | 72 | 1012.2 |
| 20260510014822 | 17 | 219 | 0.0 | 0.0 | 0.00 | 0.03 | 0.03 | 72 | 1012.0 |
| 20260510014320 | 17 | 219 | 1.6 | 1.6 | 0.00 | 0.03 | 0.03 | 70 | 1012.0 |
| 20260510013816 | 18 | 219 | 1.6 | 1.6 | 0.00 | 0.03 | 0.03 | 71 | 1012.0 |
| 20260510013312 | 18 | 212 | 1.6 | 1.6 | 0.00 | 0.03 | 0.03 | 68 | 1011.7 |
| 20260510012807 | 19 | 217 | 0.0 | 1.6 | 0.00 | 0.03 | 0.03 | 63 | 1012.0 |
| 20260510012307 | 19 | 221 | 1.6 | 1.6 | 0.00 | 0.03 | 0.03 | 64 | 1011.6 |
| 20260510011801 | 19 | 223 | 1.6 | 1.6 | 0.00 | 0.03 | 0.03 | 63 | 1011.7 |
| 20260510011257 | 19 | 225 | 1.6 | 1.6 | 0.00 | 0.03 | 0.03 | 63 | 1011.4 |
| 20260510010754 | 20 | 213 | 1.6 | 1.6 | 0.00 | 0.03 | 0.03 | 62 | 1011.4 |
| 20260510010250 | 20 | 210 | 1.6 | 1.6 | 0.00 | 0.03 | 0.03 | 59 | 1011.2 |
| 20260510005747 | 20 | 223 | 1.6 | 1.6 | 0.00 | 0.03 | 0.03 | 62 | 1011.2 |
| 20260510005244 | 20 | 208 | 3.2 | 3.2 | 0.00 | 0.03 | 0.03 | 58 | 1011.2 |
| 20260510004742 | 21 | 189 | 3.2 | 3.2 | 0.00 | 0.03 | 0.03 | 56 | 1011.1 |
| 20260510004239 | 21 | 217 | 0.0 | 1.6 | 0.00 | 0.03 | 0.03 | 55 | 1011.0 |
| 20260510003736 | 22 | 214 | 1.6 | 1.6 | 0.00 | 0.03 | 0.03 | 55 | 1011.0 |
| 20260510003232 | 22 | 201 | 3.2 | 3.2 | 0.00 | 0.03 | 0.03 | 52 | 1010.9 |
| 20260510002731 | 23 | 207 | 1.6 | 3.2 | 0.00 | 0.03 | 0.03 | 52 | 1010.9 |
| 20260510002229 | 23 | 202 | 3.2 | 3.2 | 0.00 | 0.03 | 0.03 | 50 | 1011.1 |
| 20260510001725 | 24 | 198 | 3.2 | 3.2 | 0.00 | 0.03 | 0.03 | 47 | 1010.9 |
| 20260510001224 | 24 | 213 | 0.0 | 0.0 | 0.00 | 0.03 | 0.03 | 45 | 1010.8 |
| 20260510000720 | 24 | 214 | 0.0 | 0.0 | 0.00 | 0.03 | 0.03 | 39 | 1010.9 |
| 20260510000218 | 25 | 206 | 0.0 | 1.6 | 0.00 | 0.03 | 0.03 | 39 | 1011.0 |
| 20260509235714 | 25 | 212 | 0.0 | 1.6 | 0.00 | 0.03 | 0.03 | 36 | 1010.9 |
| 20260509235210 | 25 | 219 | 0.0 | 1.6 | 0.00 | 0.03 | 0.03 | 37 | 1010.9 |
| 20260509234706 | 26 | 228 | 4.8 | 4.8 | 0.00 | 0.03 | 0.03 | 37 | 1011.0 |
| 20260509234203 | 27 | 190 | 1.6 | 3.2 | 0.00 | 0.03 | 0.03 | 32 | 1010.9 |
| 20260509233702 | 27 | 219 | 1.6 | 1.6 | 0.00 | 0.03 | 0.03 | 32 | 1010.9 |
| 20260509233159 | 27 | 206 | 0.0 | 0.0 | 0.00 | 0.03 | 0.03 | 31 | 1010.8 |
| 20260509232655 | 27 | 252 | 3.2 | 3.2 | 0.00 | 0.03 | 0.03 | 32 | 1011.0 |
| 20260509232152 | 26 | 202 | 1.6 | 1.6 | 0.00 | 0.03 | 0.03 | 34 | 1010.8 |
| 20260509231648 | 27 | 213 | 0.0 | 1.6 | 0.00 | 0.03 | 0.03 | 31 | 1011.0 |
| 20260509231146 | 27 | 221 | 1.6 | 1.6 | 0.00 | 0.03 | 0.03 | 34 | 1011.0 |
| 20260509230643 | 27 | 208 | 1.6 | 1.6 | 0.00 | 0.03 | 0.03 | 32 | 1010.9 |
| 20260509230140 | 27 | 212 | 1.6 | 1.6 | 0.00 | 0.03 | 0.03 | 30 | 1011.0 |
| 20260509225635 | 26 | 221 | 1.6 | 1.6 | 0.00 | 0.03 | 0.03 | 33 | 1010.8 |
| 20260509225131 | 26 | 209 | 0.0 | 1.6 | 0.00 | 0.03 | 0.03 | 31 | 1010.9 |
| 20260509224627 | 27 | 217 | 3.2 | 3.2 | 0.00 | 0.03 | 0.03 | 30 | 1010.8 |
| 20260509224124 | 26 | 198 | 3.2 | 3.2 | 0.00 | 0.03 | 0.03 | 33 | 1010.8 |
| 20260509223621 | 27 | 150 | 3.2 | 3.2 | 0.00 | 0.03 | 0.03 | 33 | 1010.8 |
| 20260509223118 | 27 | 200 | 0.0 | 1.6 | 0.00 | 0.03 | 0.03 | 32 | 1011.0 |
| 20260509222614 | 26 | 205 | 1.6 | 3.2 | 0.00 | 0.03 | 0.03 | 30 | 1010.9 |
| 20260509222110 | 26 | 170 | 4.8 | 4.8 | 0.00 | 0.03 | 0.03 | 33 | 1010.8 |
| 20260509221606 | 27 | 156 | 8.0 | 11.3 | 0.00 | 0.03 | 0.03 | 31 | 1010.8 |
| 20260509221102 | 27 | 210 | 0.0 | 0.0 | 0.00 | 0.03 | 0.03 | 35 | 1010.6 |
| 20260509220558 | 27 | 183 | 0.0 | 1.6 | 0.00 | 0.03 | 0.03 | 30 | 1010.6 |
| 20260509220055 | 27 | 200 | 1.6 | 1.6 | 0.00 | 0.03 | 0.03 | 33 | 1010.8 |
| 20260509215550 | 26 | 209 | 3.2 | 4.8 | 0.00 | 0.03 | 0.03 | 34 | 1010.7 |
| 20260509215048 | 27 | 211 | 4.8 | 8.0 | 0.00 | 0.03 | 0.03 | 33 | 1010.7 |
| 20260509214545 | 26 | 150 | 9.7 | 9.7 | 0.00 | 0.03 | 0.03 | 31 | 1010.8 |
| 20260509214042 | 27 | 176 | 11.3 | 11.3 | 0.00 | 0.03 | 0.03 | 32 | 1010.7 |
| 20260509213538 | 27 | 209 | 1.6 | 3.2 | 0.00 | 0.03 | 0.03 | 29 | 1010.6 |
| 20260509213035 | 27 | 218 | 1.6 | 3.2 | 0.00 | 0.03 | 0.03 | 29 | 1010.6 |
| 20260509212532 | 28 | 221 | 1.6 | 3.2 | 0.00 | 0.03 | 0.03 | 37 | 1010.7 |
| 20260509212029 | 28 | 197 | 1.6 | 1.6 | 0.00 | 0.03 | 0.03 | 31 | 1010.8 |
| 20260509211524 | 28 | 215 | 3.2 | 4.8 | 0.00 | 0.03 | 0.03 | 31 | 1010.8 |
| 20260509211021 | 28 | 216 | 3.2 | 3.2 | 0.00 | 0.03 | 0.03 | 27 | 1010.7 |
| 20260509210518 | 28 | 222 | 3.2 | 4.8 | 0.00 | 0.03 | 0.03 | 33 | 1011.1 |
| 20260509210014 | 28 | 170 | 6.4 | 8.0 | 0.00 | 0.03 | 0.03 | 28 | 1011.2 |
| 20260509205509 | 29 | 224 | 0.0 | 1.6 | 0.00 | 0.03 | 0.03 | 30 | 1011.3 |
| 20260509205005 | 29 | 202 | 0.0 | 0.0 | 0.00 | 0.03 | 0.03 | 30 | 1011.1 |
| 20260509204501 | 29 | 220 | 1.6 | 1.6 | 0.00 | 0.03 | 0.03 | 30 | 1011.3 |
| 20260509203957 | 29 | 233 | 3.2 | 3.2 | 0.00 | 0.03 | 0.03 | 34 | 1011.0 |
| 20260509203453 | 28 | 177 | 1.6 | 1.6 | 0.00 | 0.03 | 0.03 | 32 | 1011.0 |
| 20260509202951 | 28 | 254 | 3.2 | 4.8 | 0.00 | 0.03 | 0.03 | 26 | 1011.2 |
| 20260509202447 | 30 | 223 | 1.6 | 3.2 | 0.00 | 0.03 | 0.03 | 30 | 1011.4 |
| 20260509201942 | 28 | 216 | 1.6 | 3.2 | 0.00 | 0.03 | 0.03 | 27 | 1011.7 |
| 20260509201437 | 29 | 194 | 1.6 | 1.6 | 0.00 | 0.03 | 0.03 | 28 | 1011.5 |
| 20260509200935 | 28 | 216 | 0.0 | 1.6 | 0.00 | 0.03 | 0.03 | 29 | 1011.7 |
| 20260509200434 | 29 | 263 | 1.6 | 1.6 | 0.00 | 0.03 | 0.03 | 28 | 1011.9 |
| 20260509195931 | 28 | 212 | 3.2 | 3.2 | 0.00 | 0.03 | 0.03 | 31 | 1011.7 |
| 20260509195427 | 28 | 47 | 3.2 | 4.8 | 0.00 | 0.03 | 0.03 | 27 | 1011.7 |
| 20260509194926 | 27 | 196 | 3.2 | 4.8 | 0.00 | 0.03 | 0.03 | 34 | 1011.6 |
| 20260509194422 | 27 | 184 | 3.2 | 4.8 | 0.00 | 0.03 | 0.03 | 30 | 1011.6 |
| 20260509193920 | 27 | 202 | 6.4 | 8.0 | 0.00 | 0.03 | 0.03 | 33 | 1011.6 |
| 20260509193419 | 28 | 182 | 11.3 | 11.3 | 0.00 | 0.03 | 0.03 | 31 | 1011.6 |
| 20260509192916 | 28 | 192 | 1.6 | 1.6 | 0.00 | 0.03 | 0.03 | 31 | 1011.6 |
| 20260509192412 | 29 | 153 | 6.4 | 9.7 | 0.00 | 0.03 | 0.03 | 31 | 1011.6 |
| 20260509191907 | 28 | 216 | 1.6 | 3.2 | 0.00 | 0.03 | 0.03 | 33 | 1011.6 |
| 20260509191403 | 27 | 205 | 4.8 | 4.8 | 0.00 | 0.03 | 0.03 | 36 | 1011.7 |
| 20260509190859 | 29 | 175 | 9.7 | 12.9 | 0.00 | 0.03 | 0.03 | 33 | 1011.7 |
| 20260509190356 | 28 | 150 | 3.2 | 3.2 | 0.00 | 0.03 | 0.03 | 31 | 1011.7 |
| 20260509185854 | 28 | 131 | 1.6 | 3.2 | 0.00 | 0.03 | 0.03 | 30 | 1011.3 |
| 20260509185350 | 28 | 184 | 14.5 | 16.1 | 0.00 | 0.03 | 0.03 | 30 | 1011.4 |
| 20260509184847 | 27 | 197 | 3.2 | 3.2 | 0.00 | 0.03 | 0.03 | 36 | 1011.5 |
| 20260509184344 | 28 | 237 | 6.4 | 8.0 | 0.00 | 0.03 | 0.03 | 32 | 1011.7 |
| 20260509183841 | 28 | 197 | 6.4 | 9.7 | 0.00 | 0.03 | 0.03 | 30 | 1011.7 |
| 20260509183336 | 28 | 178 | 1.6 | 1.6 | 0.00 | 0.03 | 0.03 | 32 | 1012.0 |
| 20260509182832 | 27 | 160 | 3.2 | 4.8 | 0.00 | 0.03 | 0.03 | 34 | 1011.5 |
| 20260509182330 | 27 | 84 | 1.6 | 1.6 | 0.00 | 0.03 | 0.03 | 33 | 1011.7 |
| 20260509181827 | 28 | 215 | 1.6 | 1.6 | 0.00 | 0.03 | 0.03 | 33 | 1011.7 |
| 20260509181324 | 27 | 206 | 0.0 | 1.6 | 0.00 | 0.03 | 0.03 | 34 | 1011.7 |
| 20260509180821 | 28 | 21 | 3.2 | 3.2 | 0.00 | 0.03 | 0.03 | 31 | 1012.0 |
| 20260509180317 | 28 | 215 | 0.0 | 1.6 | 0.00 | 0.03 | 0.03 | 34 | 1011.7 |
| 20260509175814 | 27 | 204 | 0.0 | 0.0 | 0.00 | 0.03 | 0.03 | 32 | 1011.9 |
| 20260509175310 | 28 | 142 | 1.6 | 1.6 | 0.00 | 0.03 | 0.03 | 30 | 1011.7 |
| 20260509174806 | 28 | 207 | 1.6 | 1.6 | 0.00 | 0.03 | 0.03 | 36 | 1011.7 |
| 20260509174302 | 27 | 234 | 1.6 | 1.6 | 0.00 | 0.03 | 0.03 | 33 | 1011.9 |
| 20260509173758 | 28 | 230 | 6.4 | 9.7 | 0.00 | 0.03 | 0.03 | 38 | 1011.9 |
| 20260509173254 | 27 | 222 | 3.2 | 3.2 | 0.00 | 0.03 | 0.03 | 35 | 1012.0 |
| 20260509172750 | 27 | 226 | 1.6 | 1.6 | 0.00 | 0.03 | 0.03 | 40 | 1012.2 |
| 20260509172247 | 28 | 121 | 4.8 | 8.0 | 0.00 | 0.03 | 0.03 | 32 | 1012.2 |
| 20260509171742 | 27 | 191 | 6.4 | 11.3 | 0.00 | 0.03 | 0.03 | 37 | 1012.0 |
| 20260509171239 | 26 | 206 | 4.8 | 8.0 | 0.00 | 0.03 | 0.03 | 42 | 1012.2 |
| 20260509170736 | 26 | 217 | 1.6 | 3.2 | 0.00 | 0.03 | 0.03 | 38 | 1012.0 |
| 20260509170232 | 26 | 210 | 4.8 | 8.0 | 0.00 | 0.03 | 0.03 | 40 | 1012.1 |
| 20260509165730 | 26 | 236 | 6.4 | 9.7 | 0.00 | 0.03 | 0.03 | 39 | 1012.0 |
| 20260509165225 | 27 | 214 | 11.3 | 14.5 | 0.00 | 0.03 | 0.03 | 42 | 1012.0 |
| 20260509164722 | 27 | 181 | 1.6 | 1.6 | 0.00 | 0.03 | 0.03 | 38 | 1012.0 |
| 20260509164217 | 27 | 193 | 1.6 | 3.2 | 0.00 | 0.03 | 0.03 | 39 | 1011.9 |
| 20260509163715 | 26 | 150 | 4.8 | 4.8 | 0.00 | 0.03 | 0.03 | 42 | 1012.1 |
| 20260509163212 | 27 | 197 | 0.0 | 1.6 | 0.00 | 0.03 | 0.03 | 43 | 1012.3 |
| 20260509162709 | 26 | 238 | 3.2 | 4.8 | 0.00 | 0.03 | 0.03 | 45 | 1012.0 |
| 20260509162204 | 26 | 224 | 8.0 | 11.3 | 0.00 | 0.03 | 0.03 | 44 | 1012.1 |
| 20260509161700 | 26 | 187 | 4.8 | 8.0 | 0.00 | 0.03 | 0.03 | 42 | 1011.9 |
| 20260509161156 | 26 | 234 | 4.8 | 4.8 | 0.00 | 0.03 | 0.03 | 41 | 1012.0 |
| 20260509160652 | 26 | 164 | 0.0 | 1.6 | 0.00 | 0.03 | 0.03 | 43 | 1012.1 |
| 20260509160148 | 26 | 158 | 0.0 | 1.6 | 0.00 | 0.03 | 0.03 | 43 | 1012.1 |
| 20260509155644 | 25 | 218 | 0.0 | 1.6 | 0.00 | 0.03 | 0.03 | 48 | 1012.0 |
| 20260509155140 | 25 | 204 | 0.0 | 0.0 | 0.00 | 0.03 | 0.03 | 47 | 1012.1 |
| 20260509154636 | 24 | 232 | 1.6 | 3.2 | 0.00 | 0.03 | 0.03 | 51 | 1012.0 |
| 20260509154133 | 25 | 182 | 0.0 | 1.6 | 0.00 | 0.03 | 0.03 | 47 | 1012.4 |
| 20260509153630 | 24 | 215 | 3.2 | 3.2 | 0.00 | 0.03 | 0.03 | 54 | 1012.0 |
| 20260509153127 | 24 | 222 | 1.6 | 3.2 | 0.00 | 0.03 | 0.03 | 51 | 1012.2 |
| 20260509152622 | 25 | 204 | 0.0 | 0.0 | 0.00 | 0.03 | 0.03 | 50 | 1012.1 |
| 20260509152120 | 23 | 214 | 3.2 | 3.2 | 0.00 | 0.03 | 0.03 | 54 | 1011.9 |
| 20260509151616 | 23 | 252 | 1.6 | 1.6 | 0.00 | 0.03 | 0.03 | 54 | 1012.2 |
| 20260509151114 | 23 | 199 | 3.2 | 3.2 | 0.00 | 0.03 | 0.03 | 58 | 1012.0 |
| 20260509150612 | 23 | 185 | 4.8 | 8.0 | 0.00 | 0.03 | 0.03 | 58 | 1012.0 |
| 20260509150110 | 22 | 196 | 0.0 | 1.6 | 0.00 | 0.03 | 0.03 | 62 | 1012.2 |
| 20260509145605 | 22 | 212 | 4.8 | 4.8 | 0.00 | 0.03 | 0.03 | 61 | 1012.2 |
| 20260509145101 | 21 | 214 | 3.2 | 3.2 | 0.00 | 0.03 | 0.03 | 66 | 1012.0 |
| 20260509144558 | 20 | 216 | 1.6 | 3.2 | 0.00 | 0.03 | 0.03 | 67 | 1011.9 |
| 20260509144055 | 20 | 216 | 6.4 | 9.7 | 0.00 | 0.03 | 0.03 | 69 | 1011.6 |
| 20260509143552 | 20 | 171 | 0.0 | 1.6 | 0.00 | 0.03 | 0.03 | 72 | 1012.1 |
| 20260509143050 | 20 | 187 | 0.0 | 1.6 | 0.00 | 0.03 | 0.03 | 75 | 1011.9 |
| 20260509142545 | 19 | 185 | 4.8 | 4.8 | 0.00 | 0.03 | 0.03 | 76 | 1011.7 |
| 20260509142041 | 18 | 198 | 3.2 | 3.2 | 0.00 | 0.03 | 0.03 | 77 | 1011.9 |
| 20260509141537 | 18 | 197 | 3.2 | 3.2 | 0.00 | 0.03 | 0.03 | 77 | 1011.7 |
| 20260509141034 | 18 | 221 | 1.6 | 1.6 | 0.00 | 0.03 | 0.03 | 79 | 1011.7 |
| 20260509140531 | 18 | 212 | 4.8 | 4.8 | 0.00 | 0.03 | 0.03 | 82 | 1011.7 |
| 20260509140029 | 17 | 208 | 0.0 | 0.0 | 0.00 | 0.03 | 0.03 | 83 | 1011.9 |
| 20260509135526 | 17 | 220 | 1.6 | 1.6 | 0.00 | 0.03 | 0.03 | 85 | 1011.7 |
| 20260509135023 | 17 | 251 | 0.0 | 1.6 | 0.00 | 0.03 | 0.03 | 85 | 1012.0 |
| 20260509134520 | 16 | 185 | 3.2 | 3.2 | 0.00 | 0.03 | 0.03 | 87 | 1011.6 |
| 20260509134018 | 16 | 216 | 0.0 | 0.0 | 0.00 | 0.03 | 0.03 | 90 | 1011.9 |
| 20260509133514 | 16 | 205 | 0.0 | 0.0 | 0.00 | 0.03 | 0.03 | 91 | 1011.9 |
| 20260509133012 | 15 | 209 | 0.0 | 0.0 | 0.00 | 0.03 | 0.03 | 91 | 1011.6 |